Time;durP1;ratioP1;P1;durP2;ratioP2;P2;SDS_P1;SDS_P2;PMS_P1;PMS_P2;Temp;Humidity;BMP_temperature;BMP_pressure;BME280_temperature;BME280_humidity;BME280_pressure;Samples;Min_cycle;Max_cycle;Signal;HPM_P1;HPM_P2
2022/08/07 00:01:02;;;;;;;1.15;1.05;;;;;;;14.76;51.33;98862.00;4902850;29;20070;-73
2022/08/07 00:03:49;;;;;;;1.90;1.30;;;;;;;14.82;54.40;98859.47;4909519;29;20056;-74
2022/08/07 00:06:16;;;;;;;1.08;0.93;;;;;;;14.83;51.66;98857.66;4893643;29;20145;-74
2022/08/07 00:08:45;;;;;;;1.30;0.80;;;;;;;14.95;52.25;98860.75;4911433;29;20541;-74
2022/08/07 00:11:12;;;;;;;1.27;0.90;;;;;;;14.90;51.66;98859.47;4909621;29;20040;-73
2022/08/07 00:13:46;;;;;;;3.08;1.30;;;;;;;14.93;51.97;98858.28;4907041;29;20056;-74
2022/08/07 00:16:14;;;;;;;2.65;1.13;;;;;;;14.82;51.68;98851.47;4907964;29;20052;-74
2022/08/07 00:18:47;;;;;;;2.70;1.10;;;;;;;14.80;52.02;98853.50;4910843;29;20059;-74
2022/08/07 00:21:13;;;;;;;1.58;1.08;;;;;;;14.75;51.69;98850.50;4908632;29;22376;-74
2022/08/07 00:24:00;;;;;;;1.52;1.25;;;;;;;14.87;51.80;98857.13;4908370;29;20525;-74
2022/08/07 00:26:27;;;;;;;1.90;1.00;;;;;;;14.85;52.71;98855.63;4904859;29;20125;-74
2022/08/07 00:29:14;;;;;;;2.05;0.95;;;;;;;14.81;52.59;98849.81;4906530;29;20419;-74
2022/08/07 00:31:41;;;;;;;4.10;1.02;;;;;;;14.77;51.59;98853.84;4905388;29;20115;-74
2022/08/07 00:34:08;;;;;;;1.48;0.90;;;;;;;14.75;52.63;98847.84;4909278;29;20052;-75
2022/08/07 00:36:36;;;;;;;5.32;1.00;;;;;;;14.71;51.07;98843.84;4904951;29;20044;-74
2022/08/07 00:39:09;;;;;;;1.02;0.93;;;;;;;14.74;53.35;98850.66;4908589;29;20080;-74
2022/08/07 00:41:55;;;;;;;2.88;1.10;;;;;;;14.80;52.46;98845.50;4909316;29;20048;-74
2022/08/07 00:44:30;;;;;;;3.35;1.30;;;;;;;14.85;51.90;98845.81;4910770;29;20071;-73
2022/08/07 00:47:02;;;;;;;1.23;1.13;;;;;;;14.86;51.86;98855.47;4906846;29;20491;-74
2022/08/07 00:49:32;;;;;;;3.88;1.20;;;;;;;14.80;54.34;98853.50;4909624;29;20048;-74
2022/08/07 00:52:18;;;;;;;1.20;0.93;;;;;;;14.69;53.30;98854.69;4910363;29;20055;-74
2022/08/07 00:54:47;;;;;;;1.08;0.90;;;;;;;14.59;53.61;98858.53;4910563;29;20052;-74
2022/08/07 00:57:23;;;;;;;1.83;1.02;;;;;;;14.56;55.15;98858.84;4908866;29;20056;-75
2022/08/07 00:59:52;;;;;;;;;;;;;;;14.53;54.76;98859.19;4910645;29;20161;-74
2022/08/07 01:02:20;;;;;;;2.50;1.00;;;;;;;14.53;53.92;98852.03;4908011;29;19934;-73
2022/08/07 01:04:55;;;;;;;1.15;0.90;;;;;;;14.49;54.65;98859.50;4906955;29;20139;-75
2022/08/07 01:07:26;;;;;;;2.95;1.00;;;;;;;14.48;53.78;98857.00;4908260;29;20040;-73
2022/08/07 01:09:55;;;;;;;2.20;1.02;;;;;;;14.55;52.62;98865.19;4892804;29;20056;-74
2022/08/07 01:12:33;;;;;;;6.32;1.30;;;;;;;14.56;52.53;98854.38;4908160;29;20124;-74
2022/08/07 01:15:01;;;;;;;4.28;1.00;;;;;;;14.53;53.46;98846.72;4908241;29;20739;-74
2022/08/07 01:17:30;;;;;;;1.90;1.00;;;;;;;14.57;52.80;98857.88;4913792;29;20047;-75
2022/08/07 01:20:06;;;;;;;0.80;0.80;;;;;;;14.60;54.44;98852.22;4891212;29;20088;-74
2022/08/07 01:22:35;;;;;;;2.78;1.23;;;;;;;14.59;53.91;98847.91;4907500;29;20056;-74
2022/08/07 01:25:05;;;;;;;2.88;1.15;;;;;;;14.57;53.28;98844.56;4908394;29;20067;-74
2022/08/07 01:27:51;;;;;;;2.13;1.48;;;;;;;14.57;53.41;98841.91;4905203;29;20468;-74
2022/08/07 01:30:20;;;;;;;3.65;1.20;;;;;;;14.61;52.40;98845.88;4908577;29;20054;-74
2022/08/07 01:32:53;;;;;;;1.52;1.15;;;;;;;14.58;54.07;98847.03;4909487;29;20058;-74
2022/08/07 01:35:20;;;;;;;3.83;1.30;;;;;;;14.50;54.26;98847.84;4916986;29;20111;-74
2022/08/07 01:37:50;;;;;;;3.78;1.00;;;;;;;14.44;54.05;98848.53;4905140;29;20165;-74
2022/08/07 01:40:20;;;;;;;1.63;1.10;;;;;;;14.41;55.50;98848.06;4891701;29;20066;-74
2022/08/07 01:42:54;;;;;;;3.97;1.23;;;;;;;14.22;55.30;98841.25;4909880;29;20056;-74
2022/08/07 01:45:28;;;;;;;1.83;1.10;;;;;;;14.11;56.14;98846.91;4920945;29;20446;-74
2022/08/07 01:48:09;;;;;;;1.83;1.40;;;;;;;14.10;56.74;98845.25;4904764;29;20111;-73
2022/08/07 01:51:03;;;;;;;1.08;1.00;;;;;;;14.03;56.08;98845.91;4896072;29;20052;-72
2022/08/07 01:53:53;;;;;;;3.92;1.17;;;;;;;14.19;55.05;98844.22;4894362;29;20040;-74
2022/08/07 01:56:47;;;;;;;1.65;1.10;;;;;;;14.15;56.26;98840.25;4908103;29;20283;-73
2022/08/07 01:59:35;;;;;;;3.08;1.30;;;;;;;14.10;56.37;98839.94;4908249;29;20064;-73
2022/08/07 02:02:08;;;;;;;0.82;0.82;;;;;;;14.09;57.56;98843.59;4890824;29;20048;-73
2022/08/07 02:05:01;;;;;;;1.55;0.90;;;;;;;14.12;55.15;98841.41;4893399;29;20684;-74
2022/08/07 02:07:49;;;;;;;2.40;1.10;;;;;;;14.21;55.11;98836.91;4902381;29;20048;-74
2022/08/07 02:10:36;;;;;;;2.33;1.17;;;;;;;14.25;55.10;98836.41;4907195;29;20510;-74
2022/08/07 02:13:09;;;;;;;1.65;1.20;;;;;;;14.21;55.69;98835.09;4911486;29;20048;-73
2022/08/07 02:15:46;;;;;;;1.65;1.15;;;;;;;14.19;56.35;98836.25;4898749;29;20467;-74
2022/08/07 02:18:19;;;;;;;1.77;1.20;;;;;;;14.19;56.25;98820.28;4898649;29;20539;-74
2022/08/07 02:20:51;;;;;;;;;;;;;;;14.23;56.56;98829.59;4910430;29;20044;-74
2022/08/07 02:23:24;;;;;;;1.23;1.13;;;;;;;14.17;56.97;98824.97;4897201;29;20010;-74
2022/08/07 02:25:55;;;;;;;1.23;1.13;;;;;;;14.10;56.53;98830.09;4909817;29;20048;-74
2022/08/07 02:28:41;;;;;;;1.63;1.00;;;;;;;14.16;56.43;98828.59;4896049;29;20043;-73
2022/08/07 02:31:10;;;;;;;1.42;0.93;;;;;;;14.14;57.10;98819.94;4894409;29;20594;-74
2022/08/07 02:33:56;;;;;;;1.63;1.10;;;;;;;14.06;57.48;98823.47;4897112;29;20143;-74
2022/08/07 02:36:34;;;;;;;2.78;1.20;;;;;;;14.15;57.31;98826.94;4895326;29;20040;-74
2022/08/07 02:39:07;;;;;;;4.45;1.10;;;;;;;14.02;57.48;98820.28;4912165;29;20080;-74
2022/08/07 02:41:47;;;;;;;2.03;1.30;;;;;;;13.91;58.29;98815.31;4909113;29;20570;-74
2022/08/07 02:44:23;;;;;;;2.10;1.10;;;;;;;13.95;57.76;98821.13;4906563;29;20054;-74
2022/08/07 02:47:02;;;;;;;1.10;1.00;;;;;;;13.89;57.63;98819.97;4892860;29;20044;-74
2022/08/07 02:49:32;;;;;;;4.43;1.10;;;;;;;13.89;58.52;98819.97;4894352;29;20040;-74
2022/08/07 02:52:26;;;;;;;3.10;1.00;;;;;;;13.90;56.59;98823.44;4911552;29;20131;-74
2022/08/07 02:55:05;;;;;;;1.45;1.05;;;;;;;13.92;56.21;98818.81;4911501;29;20419;-74
2022/08/07 02:57:53;;;;;;;1.88;1.02;;;;;;;14.00;57.15;98818.81;4910593;29;20051;-74
2022/08/07 03:00:22;;;;;;;1.60;1.17;;;;;;;13.90;57.31;98812.81;4907529;29;20119;-74
2022/08/07 03:02:51;;;;;;;2.47;1.25;;;;;;;13.81;58.20;98812.81;4908404;29;20060;-74
2022/08/07 03:05:23;;;;;;;1.98;1.13;;;;;;;13.81;56.76;98809.34;4909207;29;20063;-74
2022/08/07 03:07:50;;;;;;;1.80;1.20;;;;;;;13.88;57.07;98810.34;4911532;29;20103;-74
2022/08/07 03:10:36;;;;;;;4.82;0.98;;;;;;;13.88;56.63;98810.34;4897373;29;20044;-74
2022/08/07 03:13:14;;;;;;;2.67;1.10;;;;;;;13.92;57.56;98810.81;4898172;29;20063;-73
2022/08/07 03:15:47;;;;;;;3.20;1.17;;;;;;;13.92;58.67;98811.66;4908383;29;20058;-74
2022/08/07 03:18:26;;;;;;;0.90;0.90;;;;;;;13.81;58.36;98819.97;4880769;29;20111;-74
2022/08/07 03:21:05;;;;;;;2.00;1.10;;;;;;;13.74;59.47;98813.63;4910103;29;20640;-73
2022/08/07 03:23:39;;;;;;;1.00;1.00;;;;;;;13.64;60.21;98815.63;4894060;29;20048;-74
2022/08/07 03:26:29;;;;;;;1.10;1.00;;;;;;;13.54;59.33;98821.94;4898395;29;20036;-74
2022/08/07 03:29:00;;;;;;;3.47;1.30;;;;;;;13.29;60.41;98820.22;4909587;29;20044;-75
2022/08/07 03:31:30;;;;;;;1.83;1.38;;;;;;;13.14;61.51;98820.81;4894366;29;20055;-74
2022/08/07 03:34:09;;;;;;;1.13;1.08;;;;;;;13.07;60.52;98825.09;4894630;29;21280;-73
2022/08/07 03:36:47;;;;;;;3.17;1.17;;;;;;;13.05;61.01;98818.28;4898140;29;20135;-74
2022/08/07 03:39:16;;;;;;;2.10;1.20;;;;;;;12.95;60.97;98831.69;4910289;29;20167;-74
2022/08/07 03:42:04;;;;;;;1.25;1.02;;;;;;;12.96;62.52;98828.88;4897455;29;20059;-74
2022/08/07 03:44:35;;;;;;;2.13;1.40;;;;;;;12.93;61.74;98817.75;4910319;29;20056;-74
2022/08/07 03:47:04;;;;;;;2.10;1.58;;;;;;;13.00;62.63;98820.59;4895035;29;20054;-74
2022/08/07 03:49:42;;;;;;;2.53;1.40;;;;;;;13.03;62.46;98814.94;4907744;29;20058;-74
2022/08/07 03:52:19;;;;;;;1.50;1.40;;;;;;;13.06;62.23;98818.13;4907974;29;20507;-74
2022/08/07 03:54:57;;;;;;;2.75;1.83;;;;;;;13.09;62.54;98823.13;4897104;29;20481;-74
2022/08/07 03:57:34;;;;;;;3.15;1.70;;;;;;;13.08;62.54;98812.63;4889150;29;20056;-74
2022/08/07 04:00:22;;;;;;;2.17;1.67;;;;;;;13.14;62.15;98807.53;4909934;29;20131;-74
2022/08/07 04:02:57;;;;;;;4.50;1.48;;;;;;;13.15;62.84;98814.50;4909983;29;20111;-74
2022/08/07 04:05:29;;;;;;;2.80;1.67;;;;;;;13.15;62.31;98822.47;4910182;29;20570;-73
2022/08/07 04:08:17;;;;;;;3.13;1.50;;;;;;;13.14;62.92;98826.13;4908422;29;20052;-73
2022/08/07 04:10:49;;;;;;;2.08;1.58;;;;;;;13.18;63.16;98818.66;4911186;29;20441;-74
2022/08/07 04:13:38;;;;;;;2.60;1.75;;;;;;;13.21;62.95;98828.13;4886773;29;20044;-73
2022/08/07 04:16:26;;;;;;;2.20;1.48;;;;;;;13.21;63.62;98825.47;4907424;29;20044;-74
2022/08/07 04:18:59;;;;;;;2.10;1.63;;;;;;;13.22;62.56;98819.16;4891759;29;20062;-74
2022/08/07 04:21:40;;;;;;;2.25;1.58;;;;;;;13.28;62.50;98829.19;4896081;29;20071;-74
2022/08/07 04:24:29;;;;;;;2.55;1.65;;;;;;;13.29;62.57;98834.31;4908607;29;20075;-74
2022/08/07 04:27:03;;;;;;;3.15;1.52;;;;;;;13.34;63.26;98832.00;4894457;29;20043;-74
2022/08/07 04:29:30;;;;;;;2.03;1.40;;;;;;;13.38;63.45;98837.84;4894681;29;20100;-73
2022/08/07 04:32:17;;;;;;;1.98;1.88;;;;;;;13.34;62.48;98833.84;4910360;29;20044;-73
2022/08/07 04:34:53;;;;;;;3.28;1.65;;;;;;;13.36;62.30;98845.16;4895394;29;20051;-74
2022/08/07 04:37:20;;;;;;;3.33;1.60;;;;;;;13.39;62.70;98844.81;4883143;29;20090;-73
2022/08/07 04:39:51;;;;;;;2.15;1.95;;;;;;;13.38;62.78;98846.66;4908087;29;20052;-74
2022/08/07 04:42:19;;;;;;;3.17;1.80;;;;;;;13.45;63.56;98844.16;4907616;29;20048;-74
2022/08/07 04:44:56;;;;;;;4.68;1.52;;;;;;;13.52;62.48;98852.34;4911174;29;20491;-74
2022/08/07 04:47:52;;;;;;;1.80;1.67;;;;;;;13.55;62.41;98855.47;4887175;29;20103;-72
2022/08/07 04:50:37;;;;;;;5.13;1.65;;;;;;;13.58;62.35;98849.00;4893216;29;20059;-74
2022/08/07 04:53:19;;;;;;;4.05;1.52;;;;;;;13.65;62.30;98859.84;4911853;29;20071;-74
2022/08/07 04:56:17;;;;;;;4.05;1.30;;;;;;;13.73;62.38;98863.34;4886129;29;20044;-74
2022/08/07 04:59:09;;;;;;;2.67;1.55;;;;;;;13.81;62.74;98852.72;4896427;29;22744;-73
2022/08/07 05:02:03;;;;;;;1.90;1.23;;;;;;;13.88;62.97;98857.38;4905326;29;20051;-74
2022/08/07 05:04:51;;;;;;;2.50;1.30;;;;;;;13.91;62.30;98860.53;4925045;29;20426;-74
2022/08/07 05:07:24;;;;;;;2.67;1.83;;;;;;;13.91;61.86;98865.84;4893831;29;20106;-73
2022/08/07 05:10:36;;;;;;;1.67;1.40;;;;;;;14.05;62.18;98856.38;4894938;29;20059;-73
2022/08/07 05:13:12;;;;;;;3.08;1.75;;;;;;;14.15;62.12;98865.03;4876916;29;20048;-74
2022/08/07 05:16:00;;;;;;;3.83;1.67;;;;;;;14.27;62.25;98861.03;4904658;29;20063;-72
2022/08/07 05:18:46;;;;;;;3.88;1.85;;;;;;;14.31;61.55;98858.88;4908015;29;20074;-74
2022/08/07 05:21:17;;;;;;;2.17;1.80;;;;;;;14.35;62.01;98862.88;4900501;29;20063;-74
2022/08/07 05:24:11;;;;;;;1.92;1.52;;;;;;;14.42;61.71;98863.84;4895558;29;20046;-73
2022/08/07 05:26:38;;;;;;;2.10;1.70;;;;;;;14.53;61.64;98861.88;4892778;29;20769;-73
2022/08/07 05:29:08;;;;;;;3.53;1.50;;;;;;;14.64;62.65;98864.16;4893409;29;20074;-74
2022/08/07 05:31:39;;;;;;;4.88;1.58;;;;;;;14.74;60.94;98870.13;4905247;29;20060;-73
2022/08/07 05:34:19;;;;;;;3.08;2.10;;;;;;;14.75;60.85;98871.00;4895444;29;20058;-74
2022/08/07 05:36:52;;;;;;;2.05;1.67;;;;;;;14.80;61.80;98873.97;4893139;29;20058;-74
2022/08/07 05:39:25;;;;;;;1.35;1.20;;;;;;;14.96;61.06;98875.75;4894365;29;20044;-74
2022/08/07 05:42:13;;;;;;;1.98;1.58;;;;;;;14.95;60.13;98877.56;4895723;29;20044;-74
2022/08/07 05:44:42;;;;;;;3.28;1.60;;;;;;;15.00;59.80;98869.91;4910359;29;20506;-75
2022/08/07 05:47:30;;;;;;;2.83;1.65;;;;;;;14.94;60.43;98878.59;4894677;29;20062;-74
2022/08/07 05:50:17;;;;;;;2.33;1.80;;;;;;;15.16;62.13;98877.00;4910038;29;20044;-74
2022/08/07 05:52:44;;;;;;;1.83;1.20;;;;;;;15.28;61.54;98880.97;4896775;29;20048;-74
2022/08/07 05:55:12;;;;;;;2.60;1.77;;;;;;;15.42;60.58;98883.88;4909700;29;20044;-74
2022/08/07 05:57:44;;;;;;;4.28;1.85;;;;;;;15.54;59.70;98886.00;4902026;29;20056;-75
2022/08/07 06:00:13;;;;;;;4.43;1.85;;;;;;;15.61;60.55;98883.44;4892647;29;20872;-76
2022/08/07 06:02:49;;;;;;;5.45;2.30;;;;;;;15.71;59.58;98883.25;4894700;29;20079;-74
2022/08/07 06:05:17;;;;;;;2.35;1.80;;;;;;;15.88;57.95;98886.69;4882754;29;20055;-73
2022/08/07 06:07:51;;;;;;;3.38;2.35;;;;;;;15.99;57.57;98883.59;4909943;29;20036;-75
2022/08/07 06:10:40;;;;;;;2.13;1.85;;;;;;;16.01;60.15;98881.56;4902380;29;20566;-74
2022/08/07 06:13:08;;;;;;;3.25;2.25;;;;;;;16.19;58.25;98883.91;4895018;29;20051;-74
2022/08/07 06:15:40;;;;;;;;;;;;;;;16.27;57.66;98885.69;4892295;29;20070;-74
2022/08/07 06:18:15;;;;;;;2.70;2.17;;;;;;;16.41;59.32;98884.91;4907231;29;19924;-74
2022/08/07 06:20:45;;;;;;;4.45;2.30;;;;;;;16.43;59.36;98882.91;4907470;29;20052;-74
2022/08/07 06:23:34;;;;;;;2.88;2.35;;;;;;;16.59;57.60;98882.75;4910828;29;20467;-74
2022/08/07 06:26:22;;;;;;;2.97;1.90;;;;;;;16.77;58.47;98881.56;4913406;29;20032;-74
2022/08/07 06:28:56;;;;;;;2.37;1.87;;;;;;;16.78;59.59;98878.75;4911476;29;20107;-74
2022/08/07 06:31:26;;;;;;;2.55;2.33;;;;;;;16.94;57.04;98882.25;4907581;29;20312;-74
2022/08/07 06:34:13;;;;;;;2.53;1.80;;;;;;;17.08;56.25;98879.56;4910204;29;20044;-74
2022/08/07 06:36:40;;;;;;;2.42;2.22;;;;;;;16.96;59.08;98883.72;4908393;29;20574;-74
2022/08/07 06:39:09;;;;;;;2.85;1.90;;;;;;;17.03;59.44;98871.25;4908202;29;20056;-73
2022/08/07 06:42:02;;;;;;;2.55;2.35;;;;;;;17.23;56.96;98874.22;4922446;29;20067;-75
2022/08/07 06:44:50;;;;;;;4.68;2.05;;;;;;;17.41;57.19;98876.50;4909803;29;20059;-75
2022/08/07 06:47:19;;;;;;;3.95;2.50;;;;;;;17.35;59.13;98871.88;4907344;29;20060;-74
2022/08/07 06:49:48;;;;;;;3.45;2.65;;;;;;;17.36;58.59;98873.56;4890702;29;20171;-74
2022/08/07 06:52:31;;;;;;;5.40;2.67;;;;;;;17.63;57.36;98868.50;4894504;29;20076;-75
2022/08/07 06:55:17;;;;;;;3.10;2.83;;;;;;;17.77;57.58;98872.97;4892650;29;20078;-75
2022/08/07 06:58:07;;;;;;;4.43;2.72;;;;;;;17.90;58.73;98866.97;4909236;29;20036;-74
2022/08/07 07:00:44;;;;;;;2.78;2.58;;;;;;;18.19;57.00;98872.22;4889697;29;20131;-74
2022/08/07 07:03:11;;;;;;;2.90;2.60;;;;;;;18.28;59.28;98867.53;4894441;29;20143;-74
2022/08/07 07:05:43;;;;;;;4.30;3.33;;;;;;;18.42;58.29;98871.97;4905321;29;20136;-74
2022/08/07 07:08:31;;;;;;;5.45;3.58;;;;;;;18.51;57.33;98869.16;4910999;29;20048;-75
2022/08/07 07:11:00;;;;;;;3.88;3.17;;;;;;;18.72;56.39;98870.94;4907346;29;20044;-74
2022/08/07 07:13:49;;;;;;;4.13;2.90;;;;;;;18.74;58.17;98861.69;4892513;29;20044;-75
2022/08/07 07:16:30;;;;;;;3.55;2.80;;;;;;;18.75;58.12;98866.06;4907000;29;20044;-74
2022/08/07 07:19:02;;;;;;;4.35;2.65;;;;;;;18.79;58.15;98859.28;4906903;29;20056;-75
2022/08/07 07:21:39;;;;;;;5.00;3.00;;;;;;;18.73;58.41;98864.56;4910051;29;20463;-75
2022/08/07 07:24:26;;;;;;;3.72;2.42;;;;;;;19.09;57.57;98869.78;4907564;29;20060;-74
2022/08/07 07:26:54;;;;;;;3.65;2.60;;;;;;;19.30;56.65;98867.00;4909616;29;20040;-74
2022/08/07 07:29:24;;;;;;;3.22;2.28;;;;;;;19.42;56.37;98867.22;4906151;29;20051;-74
2022/08/07 07:32:12;;;;;;;2.53;2.33;;;;;;;19.63;55.35;98858.22;4910566;29;20444;-75
2022/08/07 07:34:44;;;;;;;3.05;2.05;;;;;;;19.79;54.96;98858.91;4909615;29;20099;-74
2022/08/07 07:37:15;;;;;;;2.63;2.03;;;;;;;20.00;54.67;98858.72;4909478;29;20044;-75
2022/08/07 07:40:05;;;;;;;5.25;2.05;;;;;;;20.34;51.68;98848.84;4909727;29;20052;-75
2022/08/07 07:42:42;;;;;;;2.33;2.13;;;;;;;20.45;50.49;98856.28;4911196;29;20071;-76
2022/08/07 07:45:13;;;;;;;4.65;1.77;;;;;;;20.57;52.76;98860.03;4907910;29;20063;-75
2022/08/07 07:47:42;;;;;;;2.25;1.50;;;;;;;20.52;50.71;98854.41;4907213;29;20526;-74
2022/08/07 07:50:20;;;;;;;1.70;1.30;;;;;;;20.91;48.02;98854.59;4904965;29;20108;-74
2022/08/07 07:53:06;;;;;;;2.63;1.60;;;;;;;21.08;48.06;98846.88;4908571;29;20052;-74
2022/08/07 07:55:52;;;;;;;1.52;1.30;;;;;;;21.14;47.69;98840.66;4906582;29;20151;-75
2022/08/07 07:58:27;;;;;;;1.42;1.33;;;;;;;21.46;45.54;98839.72;4909239;29;20675;-74
2022/08/07 08:00:54;;;;;;;3.03;1.30;;;;;;;21.65;45.66;98837.16;4905036;29;20051;-74
2022/08/07 08:03:22;;;;;;;1.20;1.10;;;;;;;21.72;44.43;98837.91;4907116;29;20716;-74
2022/08/07 08:06:09;;;;;;;4.18;1.38;;;;;;;21.76;44.19;98836.44;4910955;29;20044;-76
2022/08/07 08:08:40;;;;;;;2.78;1.30;;;;;;;21.84;43.22;98828.09;4906307;29;20044;-74
2022/08/07 08:11:08;;;;;;;1.10;1.00;;;;;;;21.87;44.67;98829.53;4906625;29;20127;-75
2022/08/07 08:13:44;;;;;;;1.80;1.20;;;;;;;22.06;42.09;98827.75;4909513;29;20131;-74
2022/08/07 08:16:20;;;;;;;2.17;1.00;;;;;;;22.29;42.41;98833.38;4905169;29;20084;-75
2022/08/07 08:18:53;;;;;;;2.63;1.05;;;;;;;22.49;41.04;98829.72;4903737;29;20063;-74
2022/08/07 08:27:35;;;;;;;1.60;1.00;;;;;;;22.76;39.27;98832.97;4906957;29;20056;-74
2022/08/07 08:30:07;;;;;;;1.05;0.90;;;;;;;23.05;38.14;98823.34;4905425;29;20159;-74
2022/08/07 08:32:51;;;;;;;4.03;0.95;;;;;;;23.11;38.45;98822.41;4906266;29;20063;-74
2022/08/07 08:35:23;;;;;;;1.42;0.77;;;;;;;23.34;39.09;98823.59;4906087;29;20083;-75
2022/08/07 08:37:57;;;;;;;1.58;0.82;;;;;;;23.44;35.24;98821.19;4904193;29;20099;-74
2022/08/07 08:40:38;;;;;;;1.35;0.60;;;;;;;23.37;37.75;98821.28;4920777;29;20183;-75
2022/08/07 08:43:23;;;;;;;1.50;0.98;;;;;;;23.56;37.37;98816.66;4900600;29;20143;-75
2022/08/07 08:46:16;;;;;;;1.10;0.80;;;;;;;23.64;34.99;98810.09;4900639;29;20135;-74
2022/08/07 08:48:53;;;;;;;1.77;0.90;;;;;;;23.59;36.55;98805.41;4903870;29;20534;-73
2022/08/07 08:51:35;;;;;;;1.33;0.82;;;;;;;23.70;35.46;98808.34;4905894;29;20075;-74
2022/08/07 08:54:25;;;;;;;0.77;0.70;;;;;;;23.79;36.37;98809.72;4906275;29;20428;-74
2022/08/07 08:56:53;;;;;;;1.35;1.00;;;;;;;24.00;34.80;98809.19;4903419;29;20439;-73
2022/08/07 08:59:34;;;;;;;1.00;0.60;;;;;;;24.04;34.98;98813.06;4900724;29;20691;-75
2022/08/07 09:02:33;;;;;;;0.80;0.80;;;;;;;24.09;33.67;98815.91;4906423;29;20033;-74
2022/08/07 09:05:22;;;;;;;0.90;0.60;;;;;;;23.98;33.65;98803.19;4906385;29;20052;-74
2022/08/07 09:08:14;;;;;;;2.10;0.73;;;;;;;23.88;34.63;98805.63;4902678;29;20052;-74
2022/08/07 09:10:58;;;;;;;1.05;0.63;;;;;;;23.85;33.87;98806.91;4906973;29;20052;-74
2022/08/07 09:13:51;;;;;;;0.88;0.68;;;;;;;24.22;33.95;98803.22;4905496;29;20051;-75
2022/08/07 09:16:26;;;;;;;2.10;0.70;;;;;;;24.29;32.55;98799.34;4908190;29;20068;-75
2022/08/07 09:19:18;;;;;;;3.38;0.77;;;;;;;24.40;33.21;98810.41;4910213;29;20068;-74
2022/08/07 09:22:31;;;;;;;4.13;1.00;;;;;;;24.23;33.33;98800.28;4910257;29;20055;-74
2022/08/07 09:25:27;;;;;;;1.02;0.70;;;;;;;24.45;32.27;98808.66;4908426;29;20068;-74
2022/08/07 09:28:02;;;;;;;1.30;0.68;;;;;;;24.32;33.25;98808.88;4913085;29;20491;-74
2022/08/07 09:30:46;;;;;;;0.85;0.70;;;;;;;24.33;31.41;98799.72;4911537;29;20054;-74
2022/08/07 09:33:45;;;;;;;2.17;0.68;;;;;;;24.52;31.24;98803.16;4909918;29;20052;-74
2022/08/07 09:36:39;;;;;;;2.65;0.73;;;;;;;24.65;31.74;98796.69;4905979;29;20056;-74
2022/08/07 09:39:35;;;;;;;2.03;0.68;;;;;;;24.84;30.22;98800.06;4908095;29;20055;-75
2022/08/07 09:42:43;;;;;;;1.20;0.70;;;;;;;24.64;29.98;98800.41;4909512;29;20051;-73
2022/08/07 09:45:23;;;;;;;0.85;0.52;;;;;;;23.85;31.70;98797.97;4908428;29;20555;-73
2022/08/07 09:48:12;;;;;;;1.20;0.73;;;;;;;24.24;31.07;98793.00;4909466;29;20078;-73
2022/08/07 09:50:55;;;;;;;1.75;0.68;;;;;;;24.67;30.52;98781.00;4908818;29;20543;-73
2022/08/07 09:53:25;;;;;;;1.33;0.80;;;;;;;24.91;30.83;98790.75;4909211;29;20043;-73
2022/08/07 09:56:28;;;;;;;2.17;0.60;;;;;;;24.82;30.58;98786.75;4908103;29;20051;-73
2022/08/07 09:59:18;;;;;;;1.67;0.80;;;;;;;24.80;31.36;98788.88;4906297;29;20600;-72
2022/08/07 10:02:10;;;;;;;0.70;0.70;;;;;;;24.91;30.32;98785.34;4904965;29;20136;-73
2022/08/07 10:04:44;;;;;;;1.35;0.50;;;;;;;24.65;31.82;98773.16;4899913;29;20063;-74
2022/08/07 10:07:40;;;;;;;1.05;0.60;;;;;;;24.92;29.46;98768.03;4907484;29;20056;-74
2022/08/07 10:10:33;;;;;;;0.73;0.50;;;;;;;24.59;29.09;98771.38;4914307;29;20475;-72
2022/08/07 10:13:42;;;;;;;1.02;0.70;;;;;;;24.38;30.00;98764.69;4909613;29;20112;-73
2022/08/07 10:16:48;;;;;;;2.35;0.50;;;;;;;24.19;30.51;98761.25;4906050;29;20051;-73
2022/08/07 10:19:32;;;;;;;6.07;0.63;;;;;;;24.52;29.23;98757.97;4920973;29;20140;-72
2022/08/07 10:22:28;;;;;;;0.60;0.60;;;;;;;24.46;29.14;98764.34;4910815;29;20075;-72
2022/08/07 10:25:43;;;;;;;1.30;0.70;;;;;;;23.84;32.54;98759.34;4910337;29;20051;-72
2022/08/07 10:28:42;;;;;;;4.85;0.60;;;;;;;23.97;32.34;98747.50;4904284;29;20128;-73
2022/08/07 10:31:41;;;;;;;0.90;0.40;;;;;;;24.51;28.92;98745.53;4900903;29;20051;-73
2022/08/07 10:34:32;;;;;;;0.73;0.50;;;;;;;24.73;30.76;98745.72;4905470;29;20071;-73
2022/08/07 10:37:25;;;;;;;0.50;0.50;;;;;;;24.95;29.68;98743.19;4910619;29;20412;-72
2022/08/07 10:40:35;;;;;;;1.40;0.60;;;;;;;24.53;28.33;98729.88;4910968;29;20491;-73
2022/08/07 10:43:14;;;;;;;2.65;0.70;;;;;;;24.49;31.28;98741.41;4908856;29;20111;-73
2022/08/07 10:45:51;;;;;;;1.08;0.63;;;;;;;24.13;30.33;98732.47;4907036;29;20507;-73
2022/08/07 10:48:47;;;;;;;0.65;0.40;;;;;;;24.24;29.32;98717.28;4906692;29;20104;-71
2022/08/07 10:51:21;;;;;;;0.60;0.43;;;;;;;24.42;29.83;98716.34;4907283;29;20048;-73
2022/08/07 10:54:18;;;;;;;3.38;0.50;;;;;;;24.41;29.92;98715.53;4910078;29;20048;-73
2022/08/07 10:57:08;;;;;;;1.00;0.63;;;;;;;24.13;30.95;98710.00;4903298;29;20155;-72
2022/08/07 11:00:07;;;;;;;0.80;0.50;;;;;;;24.30;29.51;98709.06;4904444;29;20068;-72
2022/08/07 11:02:38;;;;;;;1.85;0.70;;;;;;;24.17;29.50;98703.91;4908110;29;20047;-73
2022/08/07 11:05:23;;;;;;;1.45;0.50;;;;;;;24.54;29.81;98714.47;4904715;29;20051;-72
2022/08/07 11:08:17;;;;;;;0.50;0.50;;;;;;;24.39;29.47;98700.59;4906358;29;20094;-72
2022/08/07 11:11:04;;;;;;;0.80;0.50;;;;;;;24.56;29.86;98703.41;4893598;29;20052;-73
2022/08/07 11:13:36;;;;;;;2.15;0.70;;;;;;;24.53;28.84;98694.69;4909466;29;20052;-71
2022/08/07 11:16:28;;;;;;;2.23;0.53;;;;;;;24.62;29.07;98697.03;4922001;29;20071;-72
2022/08/07 11:19:25;;;;;;;4.32;0.50;;;;;;;24.79;30.08;98699.81;4911695;29;20127;-72
2022/08/07 11:22:01;;;;;;;0.93;0.50;;;;;;;24.62;31.80;98683.50;4910435;29;20491;-72
2022/08/07 11:24:45;;;;;;;0.93;0.60;;;;;;;24.34;31.36;98681.56;4909462;29;20048;-73
2022/08/07 11:27:34;;;;;;;1.92;0.77;;;;;;;24.09;32.19;98679.91;4903894;29;20617;-73
2022/08/07 11:30:24;;;;;;;1.65;0.40;;;;;;;24.19;31.56;98674.75;4905020;29;20585;-71
2022/08/07 11:33:20;;;;;;;1.15;0.60;;;;;;;24.16;32.70;98672.50;4905735;29;20056;-73
2022/08/07 11:36:17;;;;;;;4.55;0.82;;;;;;;24.72;30.90;98667.47;4911600;29;20055;-73
2022/08/07 11:39:30;;;;;;;0.85;0.75;;;;;;;25.07;30.40;98664.66;4911598;29;20052;-73
2022/08/07 11:42:22;;;;;;;0.70;0.47;;;;;;;25.02;29.77;98666.44;4913020;29;20040;-72
2022/08/07 11:45:18;;;;;;;3.10;0.93;;;;;;;25.13;31.06;98668.28;4905738;29;20104;-73
2022/08/07 11:47:55;;;;;;;1.30;0.60;;;;;;;25.04;30.26;98669.72;4904413;29;20044;-74
2022/08/07 11:50:44;;;;;;;1.33;0.65;;;;;;;25.02;31.59;98672.69;4911118;29;20104;-73
2022/08/07 11:53:39;;;;;;;1.83;0.65;;;;;;;24.85;31.09;98656.38;4908444;29;20049;-74
2022/08/07 11:56:39;;;;;;;1.13;1.02;;;;;;;24.62;31.97;98662.72;4918283;29;20056;-74
2022/08/07 11:59:43;;;;;;;0.55;0.55;;;;;;;24.42;31.60;98662.25;4913408;29;20056;-74
2022/08/07 12:02:41;;;;;;;1.95;0.90;;;;;;;24.60;31.86;98661.31;4910481;29;20054;-74
2022/08/07 12:05:28;;;;;;;1.83;0.70;;;;;;;24.84;29.99;98660.16;4907685;29;20048;-73
2022/08/07 12:08:28;;;;;;;0.98;0.60;;;;;;;24.81;30.03;98655.22;4906292;29;20465;-73
2022/08/07 12:11:12;;;;;;;0.70;0.52;;;;;;;24.71;30.91;98657.72;4907507;29;20080;-73
2022/08/07 12:14:17;;;;;;;1.08;0.45;;;;;;;24.53;31.48;98656.03;4903685;29;20048;-73
2022/08/07 12:16:50;;;;;;;3.20;0.57;;;;;;;24.44;32.28;98650.16;4903292;29;20516;-73
2022/08/07 12:19:35;;;;;;;;;;;;;;;24.97;30.20;98648.22;4904067;29;20047;-74
2022/08/07 12:22:41;;;;;;;0.75;0.57;;;;;;;24.88;29.80;98639.69;4909583;29;20576;-74
2022/08/07 12:28:35;;;;;;;2.25;0.75;;;;;;;24.67;31.41;98637.63;4907160;29;19922;-74
2022/08/07 12:31:05;;;;;;;1.38;0.65;;;;;;;24.69;29.24;98638.22;4903621;29;20044;-73
2022/08/07 12:33:35;;;;;;;1.23;0.57;;;;;;;24.66;30.38;98638.69;4909295;29;20044;-73
2022/08/07 12:36:23;;;;;;;0.82;0.60;;;;;;;24.53;30.64;98627.09;4906384;29;20052;-72
2022/08/07 12:39:02;;;;;;;5.30;0.75;;;;;;;24.59;30.02;98627.19;4909791;29;20056;-72
2022/08/07 12:41:51;;;;;;;0.73;0.60;;;;;;;24.65;31.18;98624.34;4905837;29;20056;-72
2022/08/07 12:44:18;;;;;;;5.13;0.70;;;;;;;24.63;31.74;98617.53;4907008;29;20059;-73
2022/08/07 12:46:59;;;;;;;1.00;0.82;;;;;;;24.55;32.28;98618.75;4905873;29;20040;-74